Time;durP1;ratioP1;P1;durP2;ratioP2;P2;SDS_P1;SDS_P2;PMS_P1;PMS_P2;Temp;Humidity;BMP_temperature;BMP_pressure;BME280_temperature;BME280_humidity;BME280_pressure;Samples;Min_cycle;Max_cycle;Signal;HPM_P1;HPM_P2
2022/06/08 00:00:58;;;;;;;42.65;35.97;;;;;;;16.13;85.95;100846.72;3582375;40;20068;-64
2022/06/08 00:03:50;;;;;;;43.72;37.20;;;;;;;16.06;86.23;100835.53;3580391;40;20059;-63
2022/06/08 00:06:18;;;;;;;46.05;38.58;;;;;;;16.01;86.85;100835.91;3579743;40;20056;-64
2022/06/08 00:08:45;;;;;;;46.45;39.42;;;;;;;15.99;86.96;100835.19;3581345;40;20405;-63
2022/06/08 00:11:11;;;;;;;47.63;39.10;;;;;;;15.99;86.74;100828.91;3584179;40;20264;-63
2022/06/08 00:13:38;;;;;;;46.13;38.10;;;;;;;15.98;87.16;100830.78;3582949;40;20063;-63
2022/06/08 00:16:06;;;;;;;46.40;38.90;;;;;;;15.97;87.04;100830.88;3583926;40;20073;-63
2022/06/08 00:18:31;;;;;;;42.92;37.97;;;;;;;15.96;87.17;100818.31;3584044;40;20523;-63
2022/06/08 00:20:57;;;;;;;46.38;39.55;;;;;;;15.93;86.90;100811.31;3582590;40;20072;-63
2022/06/08 00:23:23;;;;;;;45.30;39.80;;;;;;;16.01;87.08;100821.50;3582182;40;20052;-63
2022/06/08 00:25:49;;;;;;;43.45;38.33;;;;;;;16.01;87.53;100819.63;3581557;40;20055;-63
2022/06/08 00:28:15;;;;;;;43.15;38.15;;;;;;;16.01;86.71;100816.91;3581609;40;20063;-63
2022/06/08 00:30:42;;;;;;;42.97;36.97;;;;;;;16.00;86.90;100817.94;3581070;40;20067;-62
2022/06/08 00:33:08;;;;;;;42.75;37.20;;;;;;;15.98;86.85;100817.22;3580919;40;20036;-63
2022/06/08 00:35:34;;;;;;;44.30;38.35;;;;;;;15.92;86.66;100809.59;3581359;40;20375;-63
2022/06/08 00:38:00;;;;;;;42.90;36.67;;;;;;;15.93;86.26;100807.75;3580347;40;20052;-66
2022/06/08 00:41:01;;;;;;;42.90;36.55;;;;;;;15.90;86.54;100808.84;3579700;40;20052;-63
2022/06/08 00:43:27;;;;;;;40.97;35.80;;;;;;;15.86;86.70;100807.41;3581249;40;20053;-63
2022/06/08 00:45:55;;;;;;;43.97;37.42;;;;;;;15.81;85.76;100803.34;3582486;40;20338;-64
2022/06/08 00:48:27;;;;;;;44.78;37.92;;;;;;;15.75;85.89;100799.31;3583070;40;20280;-64
2022/06/08 00:50:57;;;;;;;44.22;37.20;;;;;;;15.74;86.21;100794.88;3582814;40;20122;-66
2022/06/08 00:53:40;;;;;;;45.08;36.83;;;;;;;15.67;85.97;100789.13;3582674;40;20391;-63
2022/06/08 00:56:15;;;;;;;44.33;37.78;;;;;;;15.61;86.06;100783.31;3582110;40;20048;-63
2022/06/08 00:58:42;;;;;;;41.03;36.25;;;;;;;15.58;86.12;100791.72;3582513;40;20052;-63
2022/06/08 01:01:08;;;;;;;41.72;34.97;;;;;;;15.55;86.01;100785.53;3582256;40;20060;-63
2022/06/08 01:03:34;;;;;;;42.25;36.15;;;;;;;15.52;86.04;100784.94;3583188;40;20056;-63
2022/06/08 01:06:15;;;;;;;42.33;35.90;;;;;;;15.46;85.84;100782.75;3582064;40;20379;-63
2022/06/08 01:08:50;;;;;;;44.45;35.80;;;;;;;15.40;85.82;100778.69;3580215;40;20387;-63
2022/06/08 01:11:32;;;;;;;43.42;35.65;;;;;;;15.31;86.69;100765.91;3581092;40;20296;-63
2022/06/08 01:14:06;;;;;;;42.85;35.33;;;;;;;15.27;86.22;100768.00;3581170;40;20056;-62
2022/06/08 01:16:32;;;;;;;42.00;35.38;;;;;;;15.29;86.45;100770.59;3582994;40;20358;-63
2022/06/08 01:19:01;;;;;;;38.28;32.92;;;;;;;15.29;86.33;100765.19;3581642;40;20048;-62
2022/06/08 01:21:27;;;;;;;41.38;34.53;;;;;;;15.27;86.87;100759.03;3583062;40;20073;-65
2022/06/08 01:24:04;;;;;;;41.42;33.47;;;;;;;15.26;86.63;100746.47;3581690;40;20044;-63
2022/06/08 01:27:02;;;;;;;43.97;34.10;;;;;;;15.21;85.76;100751.41;3584254;40;20127;-63
2022/06/08 01:30:08;;;;;;;44.25;33.38;;;;;;;15.19;86.49;100748.84;3582910;40;20106;-63
2022/06/08 01:33:14;;;;;;;44.45;34.72;;;;;;;15.16;85.74;100740.09;3582061;40;20054;-63
2022/06/08 01:36:15;;;;;;;40.97;34.13;;;;;;;15.13;86.19;100738.50;3583934;40;20056;-64
2022/06/08 01:38:54;;;;;;;41.65;34.40;;;;;;;15.10;86.28;100736.06;3571380;40;20052;-63
2022/06/08 01:41:53;;;;;;;44.15;34.00;;;;;;;15.11;86.69;100726.94;3579403;40;20056;-64
2022/06/08 01:48:11;;;;;;;40.90;31.88;;;;;;;15.14;86.16;100725.84;3582579;40;20055;-65
2022/06/08 01:51:15;;;;;;;39.58;30.58;;;;;;;15.15;86.29;100722.97;3580570;40;20052;-63
2022/06/08 01:53:52;;;;;;;36.67;29.67;;;;;;;15.16;86.54;100713.91;3582970;40;20095;-63
2022/06/08 01:57:14;;;;;;;36.25;29.33;;;;;;;15.20;86.57;100718.06;3582708;40;20108;-64
2022/06/08 02:00:05;;;;;;;35.13;27.90;;;;;;;15.21;86.58;100705.38;3583023;40;20417;-63
2022/06/08 02:03:00;;;;;;;33.03;26.27;;;;;;;15.00;86.21;100668.28;3582429;40;20400;-64
2022/06/08 02:05:54;;;;;;;31.33;25.45;;;;;;;15.18;86.02;100698.34;3579770;40;21607;-63
2022/06/08 02:08:54;;;;;;;32.70;25.75;;;;;;;15.18;86.03;100692.09;3582462;40;20068;-64
2022/06/08 02:11:33;;;;;;;30.98;24.23;;;;;;;15.16;86.00;100691.34;3582908;40;20052;-64
2022/06/08 02:14:11;;;;;;;30.17;24.05;;;;;;;15.14;86.27;100690.63;3579886;40;20044;-64
2022/06/08 02:16:42;;;;;;;31.63;24.35;;;;;;;15.12;86.24;100682.63;3579867;40;20059;-64
2022/06/08 02:19:37;;;;;;;27.75;22.52;;;;;;;15.07;86.31;100672.19;3579944;40;20072;-64
2022/06/08 02:22:30;;;;;;;26.92;21.40;;;;;;;15.07;86.17;100669.47;3580662;40;20087;-64
2022/06/08 02:25:15;;;;;;;28.23;22.48;;;;;;;15.06;85.88;100659.66;3580797;40;20054;-64
2022/06/08 02:28:19;;;;;;;27.10;21.65;;;;;;;15.03;86.07;100656.31;3581577;40;20052;-64
2022/06/08 02:30:57;;;;;;;25.40;21.23;;;;;;;14.93;86.50;100641.81;3580425;40;20068;-62
2022/06/08 02:36:25;;;;;;;25.30;21.08;;;;;;;14.93;86.44;100653.50;3607172;22;20123;-63
2022/06/08 02:39:43;;;;;;;24.02;19.73;;;;;;;14.67;86.94;100612.38;3568183;40;20097;-63
2022/06/08 02:42:25;;;;;;;23.50;19.38;;;;;;;14.90;86.41;100648.34;3569749;40;20063;-63
2022/06/08 02:45:00;;;;;;;22.80;18.85;;;;;;;14.88;86.10;100653.06;3570740;40;20079;-63
2022/06/08 02:47:31;;;;;;;24.05;19.20;;;;;;;14.86;86.19;100638.78;3558964;40;20078;-63
2022/06/08 02:50:14;;;;;;;22.95;19.25;;;;;;;14.80;86.53;100644.69;3558956;40;20338;-63
2022/06/08 02:52:48;;;;;;;24.87;18.57;;;;;;;14.82;86.61;100648.16;3559774;40;20050;-62
2022/06/08 02:55:50;;;;;;;23.92;19.25;;;;;;;14.78;86.66;100638.53;3558559;40;20271;-62
2022/06/08 02:58:35;;;;;;;22.25;17.52;;;;;;;14.71;87.21;100626.50;3560148;40;20324;-63
2022/06/08 03:01:17;;;;;;;22.55;17.27;;;;;;;14.68;86.81;100630.31;3559277;40;20061;-65
2022/06/08 03:03:51;;;;;;;19.90;16.15;;;;;;;14.71;87.16;100631.91;3562648;40;20053;-64
2022/06/08 03:06:28;;;;;;;22.60;18.00;;;;;;;14.68;87.28;100621.34;3559005;40;20348;-64
2022/06/08 03:09:01;;;;;;;20.58;16.77;;;;;;;14.71;87.74;100623.81;3558831;40;20054;-64
2022/06/08 03:11:41;;;;;;;19.75;17.20;;;;;;;14.67;87.39;100616.94;3557225;40;20414;-64
2022/06/08 03:14:12;;;;;;;20.50;16.13;;;;;;;14.69;87.33;100618.53;3558862;40;20061;-64
2022/06/08 03:16:52;;;;;;;21.20;15.93;;;;;;;14.71;87.41;100626.50;3557728;40;20088;-64
2022/06/08 03:19:19;;;;;;;19.73;15.40;;;;;;;14.68;87.50;100624.06;3557075;40;20061;-64
2022/06/08 03:21:46;;;;;;;18.73;14.77;;;;;;;14.73;87.75;100625.41;3558100;40;20057;-64
2022/06/08 03:24:12;;;;;;;19.15;15.65;;;;;;;14.73;87.22;100620.00;3548725;40;21322;-64
2022/06/08 03:27:06;;;;;;;19.70;14.95;;;;;;;14.76;87.38;100621.59;3555816;40;20297;-64
2022/06/08 03:29:33;;;;;;;;;;;;;;;14.76;87.40;100621.59;3557491;40;20062;-64
2022/06/08 03:31:59;;;;;;;19.88;14.15;;;;;;;14.74;87.20;100623.56;3558259;40;19937;-64
2022/06/08 03:34:24;;;;;;;17.88;13.38;;;;;;;14.76;87.83;100627.00;3559657;40;20059;-64
2022/06/08 03:36:51;;;;;;;15.07;13.25;;;;;;;14.81;87.82;100624.75;3560161;40;21357;-64
2022/06/08 03:39:17;;;;;;;18.65;13.32;;;;;;;14.80;87.46;100620.34;3560342;40;20049;-65
2022/06/08 03:41:46;;;;;;;13.80;12.27;;;;;;;14.68;87.71;100591.59;3559247;40;20086;-65
2022/06/08 03:44:12;;;;;;;14.82;12.20;;;;;;;14.85;87.35;100620.81;3559951;40;20047;-65
2022/06/08 03:46:48;;;;;;;16.08;12.15;;;;;;;14.90;87.50;100625.84;3561504;40;20053;-64
2022/06/08 03:49:14;;;;;;;14.15;11.60;;;;;;;14.93;87.61;100629.16;3557256;40;20112;-65
2022/06/08 03:51:43;;;;;;;13.75;11.45;;;;;;;14.98;87.84;100629.63;3558950;40;20049;-64
2022/06/08 03:54:19;;;;;;;14.27;11.45;;;;;;;15.02;87.41;100617.56;3560066;40;20049;-65
2022/06/08 03:56:54;;;;;;;12.38;10.63;;;;;;;15.08;87.50;100629.72;3557533;40;20655;-64
2022/06/08 03:59:20;;;;;;;13.90;10.65;;;;;;;15.13;87.63;100623.91;3559960;40;20065;-65
2022/06/08 04:01:46;;;;;;;11.60;10.40;;;;;;;15.11;87.11;100620.50;3559670;40;20064;-65
2022/06/08 04:04:12;;;;;;;13.55;10.35;;;;;;;15.18;86.80;100622.53;3558574;40;20052;-65
2022/06/08 04:06:38;;;;;;;12.23;10.27;;;;;;;15.21;86.53;100616.00;3560313;40;20087;-65
2022/06/08 04:09:04;;;;;;;11.55;10.32;;;;;;;15.25;87.55;100612.91;3557607;40;20065;-64
2022/06/08 04:11:30;;;;;;;11.95;10.18;;;;;;;15.28;86.92;100617.19;3561891;40;20057;-65
2022/06/08 04:13:59;;;;;;;12.75;10.02;;;;;;;15.32;87.09;100615.97;3559033;40;20064;-65
2022/06/08 04:16:24;;;;;;;11.43;9.88;;;;;;;15.35;86.65;100607.59;3558810;40;20056;-65
2022/06/08 04:18:50;;;;;;;10.60;9.50;;;;;;;15.40;86.47;100612.59;3554371;40;20335;-65
2022/06/08 04:21:16;;;;;;;10.10;9.00;;;;;;;15.44;86.67;100606.78;3561880;40;20065;-64
2022/06/08 04:23:45;;;;;;;11.32;8.65;;;;;;;15.51;86.37;100602.56;3559314;40;20127;-64
2022/06/08 04:26:14;;;;;;;10.55;8.88;;;;;;;15.55;86.16;100592.31;3560116;40;20376;-64
2022/06/08 04:28:40;;;;;;;11.65;8.65;;;;;;;15.59;85.92;100596.47;3560721;40;20133;-65
2022/06/08 04:31:08;;;;;;;10.85;9.10;;;;;;;15.47;85.69;100574.00;3558375;40;20353;-65
2022/06/08 04:33:34;;;;;;;9.95;8.75;;;;;;;15.60;85.76;100591.91;3560318;40;21574;-64
2022/06/08 04:36:00;;;;;;;10.25;8.60;;;;;;;15.64;85.90;100601.50;3558685;40;20400;-64
2022/06/08 04:38:27;;;;;;;9.70;8.70;;;;;;;15.66;85.61;100600.34;3558683;40;20057;-66
2022/06/08 04:40:53;;;;;;;14.98;10.90;;;;;;;15.70;85.90;100598.31;3558502;40;20050;-65
2022/06/08 04:43:19;;;;;;;21.33;16.40;;;;;;;15.66;85.88;100577.84;3560586;40;20127;-64
2022/06/08 04:45:45;;;;;;;10.13;8.15;;;;;;;15.75;84.75;100596.03;3562689;40;20127;-64
2022/06/08 04:48:11;;;;;;;10.82;7.80;;;;;;;15.78;85.15;100584.94;3558305;40;20639;-64
2022/06/08 04:50:38;;;;;;;10.50;7.85;;;;;;;15.58;84.93;100554.13;3560260;40;20049;-65
2022/06/08 04:53:05;;;;;;;9.40;7.80;;;;;;;15.81;84.57;100579.22;3561001;40;20416;-66
2022/06/08 04:55:31;;;;;;;9.15;7.95;;;;;;;15.84;84.32;100581.69;3561333;40;20053;-64
2022/06/08 04:57:57;;;;;;;10.98;7.55;;;;;;;15.79;84.51;100567.66;3559458;40;20053;-64
2022/06/08 05:00:24;;;;;;;8.88;7.18;;;;;;;15.91;84.48;100576.56;3560180;40;20076;-65
2022/06/08 05:02:54;;;;;;;11.48;7.50;;;;;;;15.90;83.83;100581.13;3559973;40;20800;-65
2022/06/08 05:05:31;;;;;;;8.77;7.10;;;;;;;15.74;83.77;100543.69;3560846;40;20064;-64
2022/06/08 05:07:58;;;;;;;9.73;7.18;;;;;;;15.94;84.45;100576.31;3558360;40;20057;-64
2022/06/08 05:10:28;;;;;;;8.70;7.82;;;;;;;15.96;84.67;100577.88;3559911;40;20061;-64
2022/06/08 05:12:54;;;;;;;8.18;7.38;;;;;;;15.97;84.45;100571.47;3556613;40;20079;-64
2022/06/08 05:15:28;;;;;;;8.65;6.82;;;;;;;16.00;83.69;100565.78;3559173;40;20077;-65
2022/06/08 05:17:54;;;;;;;8.82;6.30;;;;;;;16.05;83.64;100561.78;3552720;40;20113;-64
2022/06/08 05:20:21;;;;;;;9.18;6.88;;;;;;;15.86;83.39;100522.78;3560610;40;20111;-64
2022/06/08 05:22:50;;;;;;;10.23;8.00;;;;;;;16.01;83.23;100545.78;3559111;40;20065;-66
2022/06/08 05:25:24;;;;;;;8.18;6.45;;;;;;;16.14;82.67;100555.53;3559632;40;20490;-64
2022/06/08 05:27:50;;;;;;;8.05;6.32;;;;;;;16.15;83.17;100547.28;3560737;40;20068;-64
2022/06/08 05:30:17;;;;;;;8.00;5.88;;;;;;;16.23;82.82;100552.00;3560094;40;20061;-64
2022/06/08 05:32:42;;;;;;;8.38;6.30;;;;;;;16.26;82.98;100549.00;3560147;40;20126;-64
2022/06/08 05:35:09;;;;;;;6.75;5.97;;;;;;;16.30;82.10;100545.06;3560033;40;20073;-64
2022/06/08 05:37:34;;;;;;;8.40;6.20;;;;;;;16.35;81.78;100545.47;3557116;40;20073;-64
2022/06/08 05:40:01;;;;;;;6.82;5.75;;;;;;;16.39;82.33;100538.75;3559258;40;20435;-65
2022/06/08 05:42:27;;;;;;;6.78;5.53;;;;;;;16.40;81.27;100526.94;3556318;40;20876;-65
2022/06/08 05:44:53;;;;;;;7.07;5.72;;;;;;;16.48;80.95;100528.94;3557610;40;20136;-65
2022/06/08 05:47:18;;;;;;;7.18;5.60;;;;;;;16.55;81.65;100526.50;3560577;40;20066;-64
2022/06/08 05:49:44;;;;;;;9.20;5.85;;;;;;;16.60;81.21;100516.09;3557111;40;20065;-66
2022/06/08 05:52:10;;;;;;;8.68;5.63;;;;;;;16.65;81.69;100522.84;3558283;40;21038;-65
2022/06/08 05:54:36;;;;;;;6.07;5.47;;;;;;;16.65;80.72;100511.97;3557558;40;20092;-65
2022/06/08 05:57:03;;;;;;;6.30;5.00;;;;;;;16.73;80.55;100507.69;3556367;40;20614;-65
2022/06/08 05:59:29;;;;;;;6.28;5.40;;;;;;;16.68;80.66;100483.66;3556821;40;20111;-65
2022/06/08 06:01:55;;;;;;;6.97;4.95;;;;;;;16.70;80.33;100481.69;3560322;40;20064;-65
2022/06/08 06:04:21;;;;;;;6.80;5.55;;;;;;;16.80;79.82;100500.72;3558166;40;20603;-65
2022/06/08 06:06:47;;;;;;;6.72;5.40;;;;;;;16.83;80.47;100497.72;3558041;40;20066;-65
2022/06/08 06:09:18;;;;;;;6.68;4.70;;;;;;;16.88;80.95;100501.72;3559625;40;20041;-65
2022/06/08 06:11:45;;;;;;;6.18;5.05;;;;;;;16.81;79.61;100478.88;3558475;40;20327;-65
2022/06/08 06:14:11;;;;;;;5.78;4.93;;;;;;;16.92;79.90;100505.84;3559100;40;20053;-65
2022/06/08 06:16:37;;;;;;;8.00;5.55;;;;;;;16.63;79.75;100456.97;3559659;40;20060;-65
2022/06/08 06:19:03;;;;;;;5.53;4.95;;;;;;;16.98;78.85;100517.16;3559922;40;20057;-65
2022/06/08 06:21:29;;;;;;;10.15;5.70;;;;;;;17.00;79.41;100520.56;3563873;40;20110;-66
2022/06/08 06:23:58;;;;;;;7.07;5.30;;;;;;;17.05;79.80;100512.84;3562691;40;20077;-65
2022/06/08 06:26:24;;;;;;;7.85;5.25;;;;;;;17.08;79.69;100518.00;3560827;40;20072;-64
2022/06/08 06:28:50;;;;;;;6.18;5.13;;;;;;;16.86;79.86;100475.72;3553777;40;20061;-65
2022/06/08 06:31:23;;;;;;;6.45;5.25;;;;;;;17.11;78.89;100523.13;3562681;40;20065;-64
2022/06/08 06:33:49;;;;;;;5.40;4.90;;;;;;;17.06;78.88;100510.00;3558100;40;20065;-65
2022/06/08 06:36:15;;;;;;;8.70;4.75;;;;;;;17.09;79.11;100509.69;3561671;40;20324;-65
2022/06/08 06:38:41;;;;;;;6.70;4.90;;;;;;;17.05;79.27;100504.69;3563754;40;20396;-64
2022/06/08 06:41:07;;;;;;;4.63;4.18;;;;;;;17.13;78.75;100513.84;3556974;40;20053;-65
2022/06/08 06:43:35;;;;;;;8.60;4.93;;;;;;;17.23;78.99;100507.53;3559886;40;20293;-65
2022/06/08 06:46:02;;;;;;;8.70;4.38;;;;;;;17.31;78.95;100511.22;3561029;40;20055;-64
2022/06/08 06:48:28;;;;;;;5.72;4.18;;;;;;;17.47;78.54;100501.63;3561440;40;20400;-65
2022/06/08 06:50:54;;;;;;;5.38;4.28;;;;;;;17.60;78.20;100496.69;3558947;40;20316;-64
2022/06/08 06:53:20;;;;;;;5.70;4.50;;;;;;;17.81;77.40;100497.38;3560032;40;20068;-64
2022/06/08 06:55:46;;;;;;;6.47;3.90;;;;;;;18.02;76.95;100490.84;3561445;40;20061;-64
2022/06/08 06:58:11;;;;;;;6.38;3.63;;;;;;;18.21;75.66;100496.19;3561872;40;20064;-64
2022/06/08 07:00:37;;;;;;;6.80;3.58;;;;;;;18.35;74.78;100492.06;3562914;40;20068;-64
2022/06/08 07:03:04;;;;;;;4.18;3.38;;;;;;;18.45;75.63;100486.56;3559523;40;20056;-65
2022/06/08 07:05:34;;;;;;;4.90;3.75;;;;;;;18.60;73.99;100490.47;3563129;40;20050;-64
2022/06/08 07:08:00;;;;;;;6.43;3.13;;;;;;;18.70;72.50;100491.22;3562085;40;20164;-64
2022/06/08 07:10:26;;;;;;;7.28;2.88;;;;;;;18.91;72.93;100484.66;3561634;40;20065;-64
2022/06/08 07:12:52;;;;;;;5.75;2.72;;;;;;;19.03;70.04;100480.69;3560754;40;20054;-64
2022/06/08 07:15:20;;;;;;;9.30;2.97;;;;;;;19.09;69.25;100484.63;3561351;40;20065;-65
2022/06/08 07:17:46;;;;;;;6.38;2.72;;;;;;;19.15;69.23;100493.00;3561666;40;20392;-65
2022/06/08 07:20:13;;;;;;;4.85;3.00;;;;;;;19.19;69.18;100486.25;3560319;40;20057;-64
2022/06/08 07:22:39;;;;;;;7.15;2.72;;;;;;;19.13;69.77;100466.97;3562922;40;20061;-65
2022/06/08 07:25:08;;;;;;;4.82;2.90;;;;;;;19.23;70.03;100482.19;3560926;40;20055;-64
2022/06/08 07:27:36;;;;;;;5.68;3.00;;;;;;;19.25;70.00;100479.28;3558580;40;20311;-64
2022/06/08 07:30:04;;;;;;;3.53;2.80;;;;;;;19.15;69.53;100482.09;3558788;40;20057;-64
2022/06/08 07:32:30;;;;;;;4.80;2.90;;;;;;;19.22;69.89;100475.03;3559049;40;20057;-65
2022/06/08 07:34:55;;;;;;;5.30;2.65;;;;;;;19.42;70.36;100477.53;3560446;40;20045;-64
2022/06/08 07:37:22;;;;;;;5.13;2.90;;;;;;;19.54;69.93;100478.97;3561669;40;20056;-64
2022/06/08 07:39:48;;;;;;;6.07;2.38;;;;;;;19.80;68.69;100472.66;3560233;40;20091;-65
2022/06/08 07:42:14;;;;;;;6.65;2.60;;;;;;;19.91;67.17;100473.22;3556070;40;20409;-64
2022/06/08 07:44:39;;;;;;;4.88;2.83;;;;;;;20.05;67.05;100476.34;3558727;40;20098;-65
2022/06/08 07:47:05;;;;;;;5.68;2.75;;;;;;;20.18;67.99;100482.19;3557949;40;20324;-64
2022/06/08 07:49:36;;;;;;;9.13;2.50;;;;;;;20.18;64.78;100483.03;3557616;40;20064;-65
2022/06/08 07:52:11;;;;;;;4.60;2.20;;;;;;;20.23;66.14;100474.34;3563343;40;20050;-64
2022/06/08 07:54:38;;;;;;;3.35;2.50;;;;;;;20.30;65.78;100480.88;3559775;40;20420;-65
2022/06/08 07:57:05;;;;;;;6.65;2.40;;;;;;;20.29;63.95;100481.03;3559186;40;20057;-65
2022/06/08 07:59:36;;;;;;;6.45;2.58;;;;;;;20.20;64.37;100482.00;3560403;40;20085;-65
2022/06/08 08:02:04;;;;;;;5.63;2.38;;;;;;;20.00;65.04;100478.72;3559967;40;20049;-65
2022/06/08 08:04:30;;;;;;;3.67;1.92;;;;;;;19.96;66.04;100486.38;3560259;40;20044;-65
2022/06/08 08:06:55;;;;;;;5.63;2.55;;;;;;;19.91;66.59;100486.00;3561540;40;20375;-64
2022/06/08 08:09:23;;;;;;;5.53;2.28;;;;;;;19.90;65.74;100484.31;3561493;40;20048;-64
2022/06/08 08:11:52;;;;;;;7.30;2.45;;;;;;;19.80;66.55;100489.03;3558889;40;20057;-65
2022/06/08 08:14:21;;;;;;;7.88;2.38;;;;;;;19.77;65.88;100479.31;3559504;40;20347;-64
2022/06/08 08:16:48;;;;;;;7.32;2.72;;;;;;;19.69;66.38;100484.69;3560943;40;20069;-65
2022/06/08 08:19:18;;;;;;;7.63;2.78;;;;;;;19.57;66.01;100477.78;3558023;40;20065;-65
2022/06/08 08:21:46;;;;;;;8.90;2.90;;;;;;;19.48;66.08;100472.28;3560411;40;20307;-64
2022/06/08 08:24:13;;;;;;;4.80;2.65;;;;;;;19.42;66.76;100480.28;3561652;40;20386;-65
2022/06/08 08:26:39;;;;;;;5.18;2.33;;;;;;;19.47;67.29;100484.22;3561487;40;20049;-64
2022/06/08 08:29:05;;;;;;;5.75;2.58;;;;;;;19.44;66.82;100486.41;3562846;40;20126;-64
2022/06/08 08:31:32;;;;;;;8.07;2.53;;;;;;;19.38;66.81;100481.63;3561983;40;20065;-64
2022/06/08 08:33:59;;;;;;;6.40;2.67;;;;;;;19.32;66.76;100479.53;3560277;40;20065;-64
2022/06/08 08:36:25;;;;;;;8.70;2.65;;;;;;;19.24;67.85;100478.44;3560022;40;20081;-64
2022/06/08 08:38:51;;;;;;;6.47;2.55;;;;;;;19.28;67.68;100473.50;3558755;40;20168;-65
2022/06/08 08:44:27;;;;;;;8.23;2.80;;;;;;;19.38;67.81;100481.63;3560428;40;20130;-64
2022/06/08 08:47:07;;;;;;;7.50;2.85;;;;;;;19.41;67.52;100479.41;3558988;40;20053;-64
2022/06/08 08:49:37;;;;;;;8.73;2.65;;;;;;;19.45;68.82;100475.34;3558755;40;20396;-64
2022/06/08 08:52:24;;;;;;;8.80;2.90;;;;;;;19.43;67.69;100454.72;3559777;40;20127;-64
2022/06/08 08:55:19;;;;;;;8.57;2.60;;;;;;;19.44;67.09;100483.66;3558167;40;20373;-64
2022/06/08 08:58:16;;;;;;;10.13;2.55;;;;;;;19.45;67.88;100477.22;3549148;40;20413;-64
2022/06/08 09:00:55;;;;;;;4.90;2.55;;;;;;;19.39;66.53;100480.59;3558638;40;20265;-64
2022/06/08 09:03:52;;;;;;;5.25;2.50;;;;;;;19.27;66.56;100473.69;3559496;40;20057;-64
2022/06/08 09:06:33;;;;;;;6.07;2.42;;;;;;;19.31;67.57;100483.25;3562861;40;20057;-63
2022/06/08 09:09:10;;;;;;;5.18;2.75;;;;;;;19.28;67.52;100481.69;3560968;40;20057;-64
2022/06/08 09:11:44;;;;;;;6.50;2.42;;;;;;;19.25;67.64;100477.44;3562187;40;20123;-64
2022/06/08 09:14:23;;;;;;;6.97;2.78;;;;;;;19.23;67.55;100476.72;3560732;40;20061;-64
2022/06/08 09:17:33;;;;;;;11.02;2.60;;;;;;;19.17;69.21;100471.91;3559813;40;20067;-64
2022/06/08 09:20:20;;;;;;;8.13;2.80;;;;;;;19.16;69.06;100475.66;3562322;40;20050;-63
2022/06/08 09:22:52;;;;;;;5.80;2.70;;;;;;;19.14;70.23;100480.41;3561666;40;20460;-64
2022/06/08 09:25:32;;;;;;;10.18;2.92;;;;;;;19.09;70.00;100471.00;3562537;40;20053;-63
2022/06/08 09:27:59;;;;;;;7.38;2.72;;;;;;;19.07;71.02;100473.03;3560218;40;20056;-64
2022/06/08 09:30:48;;;;;;;8.35;3.10;;;;;;;18.99;71.45;100480.13;3561155;40;20059;-64
2022/06/08 09:33:26;;;;;;;9.10;2.83;;;;;;;18.89;71.55;100478.50;3561991;40;20067;-64
2022/06/08 09:36:26;;;;;;;7.30;3.17;;;;;;;18.76;72.70;100484.34;3560389;40;20073;-64
2022/06/08 09:38:52;;;;;;;6.68;2.72;;;;;;;18.66;73.10;100478.94;3560730;40;20419;-64
2022/06/08 09:41:36;;;;;;;6.00;2.80;;;;;;;18.36;73.63;100443.94;3561270;40;20148;-64
2022/06/08 09:44:24;;;;;;;8.70;3.03;;;;;;;18.43;73.90;100481.28;3560145;40;20065;-64
2022/06/08 09:53:33;;;;;;;9.05;2.55;;;;;;;18.09;74.54;100492.81;3560178;40;20057;-63
2022/06/08 09:56:50;;;;;;;10.00;2.60;;;;;;;18.06;75.62;100492.25;3559637;40;20168;-63
2022/06/08 10:00:00;;;;;;;8.02;3.20;;;;;;;17.96;77.28;100483.28;3560645;40;20084;-62
2022/06/08 10:02:46;;;;;;;6.95;2.80;;;;;;;17.93;77.64;100486.31;3556099;40;20054;-63
2022/06/08 10:05:47;;;;;;;9.57;3.50;;;;;;;17.89;79.81;100485.75;3560060;40;20049;-62
2022/06/08 10:08:27;;;;;;;11.38;3.25;;;;;;;17.85;79.29;100485.19;3559569;40;20059;-65
2022/06/08 10:11:34;;;;;;;6.88;3.00;;;;;;;17.67;79.20;100492.41;3559577;40;20645;-65
2022/06/08 10:14:08;;;;;;;9.13;3.50;;;;;;;17.63;79.60;100490.97;3559839;40;20052;-66
2022/06/08 10:16:42;;;;;;;6.95;3.13;;;;;;;17.51;80.22;100487.59;3559227;40;20045;-65
2022/06/08 10:19:18;;;;;;;6.95;3.15;;;;;;;17.42;80.69;100487.63;3559822;40;20085;-67
2022/06/08 10:21:44;;;;;;;8.32;3.50;;;;;;;17.37;81.70;100488.91;3558486;40;20065;-66
2022/06/08 10:24:31;;;;;;;9.63;4.05;;;;;;;17.29;82.20;100485.22;3559106;40;20069;-65
2022/06/08 10:27:28;;;;;;;12.02;4.30;;;;;;;17.29;82.26;100485.22;3558150;40;20052;-65
2022/06/08 10:30:37;;;;;;;9.95;3.95;;;;;;;17.25;83.85;100473.78;3560295;40;20073;-65
2022/06/08 10:33:21;;;;;;;11.80;4.13;;;;;;;17.36;83.56;100484.50;3537055;40;20058;-65
2022/06/08 10:35:54;;;;;;;10.63;4.00;;;;;;;17.42;83.35;100482.19;3557292;40;20073;-67
2022/06/08 10:38:36;;;;;;;6.95;3.78;;;;;;;17.39;83.06;100486.91;3560189;40;20061;-65
2022/06/08 10:44:04;;;;;;;14.82;4.65;;;;;;;17.33;83.15;100479.34;3557477;40;20430;-68
2022/06/08 10:46:45;;;;;;;8.93;4.22;;;;;;;17.34;83.62;100475.63;3558697;40;20063;-66
2022/06/08 10:49:32;;;;;;;10.98;4.40;;;;;;;17.36;82.40;100479.06;3559092;40;20353;-65
2022/06/08 10:52:26;;;;;;;7.57;3.42;;;;;;;17.31;82.54;100478.63;3556231;40;20057;-66
2022/06/08 10:55:18;;;;;;;8.30;3.95;;;;;;;17.40;82.73;100479.59;3559101;40;20301;-65
2022/06/08 10:57:49;;;;;;;6.22;2.58;;;;;;;17.31;81.38;100475.06;3558460;40;20100;-65
2022/06/08 11:00:19;;;;;;;8.05;2.80;;;;;;;17.24;79.46;100476.66;3559954;40;20056;-65
2022/06/08 11:03:00;;;;;;;8.43;2.90;;;;;;;17.22;79.95;100476.81;3559885;40;20065;-65
2022/06/08 11:05:39;;;;;;;10.15;2.97;;;;;;;17.19;79.71;100471.69;3557970;40;20167;-65
2022/06/08 11:08:07;;;;;;;15.25;2.90;;;;;;;17.20;80.16;100467.94;3560707;40;20049;-67
2022/06/08 11:10:45;;;;;;;10.65;3.05;;;;;;;17.24;80.92;100463.06;3557456;40;20051;-66
2022/06/08 11:13:22;;;;;;;7.63;3.10;;;;;;;17.24;81.43;100455.78;3558605;40;20046;-64
2022/06/08 11:16:00;;;;;;;8.68;3.08;;;;;;;17.26;80.31;100459.22;3560367;40;20135;-65
2022/06/08 11:18:51;;;;;;;13.18;2.88;;;;;;;17.18;79.83;100453.63;3558902;40;20056;-66
2022/06/08 11:21:44;;;;;;;11.35;2.97;;;;;;;17.09;80.93;100451.78;3559575;40;20067;-66
2022/06/08 11:24:39;;;;;;;8.13;3.13;;;;;;;17.10;81.63;100443.53;3558912;40;20410;-65
2022/06/08 11:27:11;;;;;;;7.53;2.95;;;;;;;17.14;81.67;100446.81;3559118;40;20089;-67
2022/06/08 11:30:22;;;;;;;7.18;3.10;;;;;;;16.99;82.70;100438.25;3561976;40;20049;-66
2022/06/08 11:32:50;;;;;;;6.45;3.28;;;;;;;17.00;82.04;100434.53;3554196;40;20053;-69
2022/06/08 11:35:53;;;;;;;9.90;3.72;;;;;;;16.97;82.60;100428.53;3562142;40;20097;-66
2022/06/08 11:38:38;;;;;;;12.10;3.92;;;;;;;17.08;83.54;100431.94;3561898;40;20057;-65
2022/06/08 11:41:21;;;;;;;9.13;3.55;;;;;;;17.16;83.66;100428.50;3562538;40;20878;-66
2022/06/08 11:43:49;;;;;;;8.63;3.67;;;;;;;17.11;83.96;100439.78;3563789;40;20067;-65
2022/06/08 11:46:39;;;;;;;8.75;3.03;;;;;;;17.09;82.66;100421.94;3558722;40;20439;-67
2022/06/08 11:49:33;;;;;;;8.77;3.08;;;;;;;17.00;80.81;100412.81;3560582;40;20323;-65
2022/06/08 11:52:46;;;;;;;6.65;3.03;;;;;;;16.99;81.54;100412.94;3549780;40;20448;-65
2022/06/08 11:55:21;;;;;;;8.85;2.90;;;;;;;16.95;81.32;100415.09;3553450;40;20135;-65
2022/06/08 11:58:04;;;;;;;9.18;3.13;;;;;;;16.95;81.93;100415.09;3561392;40;20070;-66
2022/06/08 12:00:42;;;;;;;7.35;3.38;;;;;;;16.93;82.10;100417.94;3559793;40;20064;-66
2022/06/08 12:03:17;;;;;;;10.93;3.33;;;;;;;16.89;81.98;100410.25;3560398;40;20114;-65
2022/06/08 12:05:51;;;;;;;11.02;3.53;;;;;;;16.88;83.23;100412.13;3559611;40;20064;-65
2022/06/08 12:08:33;;;;;;;7.05;2.75;;;;;;;16.82;82.02;100410.00;3555957;40;20052;-65
2022/06/08 12:11:03;;;;;;;7.10;2.70;;;;;;;16.73;81.67;100407.25;3560323;40;20049;-66
2022/06/08 12:13:29;;;;;;;6.82;3.22;;;;;;;16.68;82.41;100407.66;3559806;40;20045;-66